Time;durP1;ratioP1;P1;durP2;ratioP2;P2;SDS_P1;SDS_P2;PMS_P1;PMS_P2;Temp;Humidity;BMP_temperature;BMP_pressure;BME280_temperature;BME280_humidity;BME280_pressure;Samples;Min_cycle;Max_cycle;Signal;HPM_P1;HPM_P2
2020/12/26 00:01:42;;;;;;;0.60;0.60;;;-2.60;99.90;;;;;;4952014;29;20211;-87
2020/12/26 00:04:09;;;;;;;0.57;0.57;;;-2.50;99.90;;;;;;4952443;29;20234;-88
2020/12/26 00:06:38;;;;;;;0.60;0.60;;;-2.70;99.90;;;;;;4952150;29;20410;-87
2020/12/26 00:09:05;;;;;;;0.60;0.60;;;-2.50;99.90;;;;;;4952476;29;20211;-88
2020/12/26 00:11:35;;;;;;;0.52;0.52;;;-3.00;99.90;;;;;;4952288;28;20263;-86
2020/12/26 00:14:02;;;;;;;0.60;0.60;;;-2.50;99.90;;;;;;4952671;29;20212;-86
2020/12/26 00:16:29;;;;;;;0.60;0.60;;;;;;;;;;4953295;29;20211;-87
2020/12/26 00:18:58;;;;;;;0.52;0.52;;;-2.50;99.90;;;;;;4952100;29;20239;-87
2020/12/26 00:21:24;;;;;;;0.60;0.60;;;;;;;;;;4952449;29;20200;-87
2020/12/26 00:23:50;;;;;;;0.60;0.60;;;-2.50;99.90;;;;;;4951902;28;20235;-87
2020/12/26 00:26:19;;;;;;;0.60;0.60;;;-2.50;99.90;;;;;;4952358;29;20208;-86
2020/12/26 00:28:45;;;;;;;0.60;0.60;;;-2.40;99.90;;;;;;4952369;29;20212;-87
2020/12/26 00:31:14;;;;;;;0.60;0.60;;;-2.60;99.90;;;;;;4952187;29;20659;-88
2020/12/26 00:33:40;;;;;;;0.60;0.60;;;;;;;;;;4951723;29;20208;-88
2020/12/26 00:36:07;;;;;;;0.60;0.60;;;;;;;;;;4944006;29;20227;-88
2020/12/26 00:38:33;;;;;;;0.50;0.50;;;;;;;;;;4951535;29;20715;-86
2020/12/26 00:41:00;;;;;;;0.60;0.60;;;;;;;;;;4951527;29;20208;-87
2020/12/26 00:43:26;;;;;;;0.60;0.60;;;-2.60;99.90;;;;;;4951708;29;20629;-86
2020/12/26 00:45:52;;;;;;;0.60;0.60;;;-2.60;99.90;;;;;;4951374;29;20489;-88
2020/12/26 00:48:20;;;;;;;0.50;0.50;;;-2.60;99.90;;;;;;4951682;29;20304;-87
2020/12/26 00:50:49;;;;;;;0.50;0.50;;;-2.60;99.90;;;;;;4950981;29;20212;-87
2020/12/26 00:53:18;;;;;;;0.60;0.60;;;-2.30;99.90;;;;;;4951823;29;20553;-87
2020/12/26 00:55:47;;;;;;;0.60;0.60;;;-2.90;99.90;;;;;;4951489;29;20218;-88
2020/12/26 00:58:17;;;;;;;0.60;0.60;;;-2.60;99.90;;;;;;4951987;29;20203;-88
2020/12/26 01:00:43;;;;;;;0.60;0.60;;;-2.40;99.90;;;;;;4951297;29;20211;-87
2020/12/26 01:03:10;;;;;;;0.60;0.60;;;;;;;;;;4951211;29;20232;-87
2020/12/26 01:05:39;;;;;;;0.60;0.60;;;-2.70;99.90;;;;;;4951392;28;20215;-88
2020/12/26 01:08:06;;;;;;;0.60;0.60;;;;;;;;;;4951309;29;20208;-88
2020/12/26 01:10:32;;;;;;;0.50;0.50;;;-2.60;99.90;;;;;;4951485;28;20207;-87
2020/12/26 01:12:59;;;;;;;0.60;0.60;;;;;;;;;;4951818;29;20212;-88
2020/12/26 01:15:25;;;;;;;0.60;0.60;;;;;;;;;;4951799;28;20601;-88
2020/12/26 01:17:59;;;;;;;0.60;0.60;;;;;;;;;;4951472;28;20246;-88
2020/12/26 01:20:25;;;;;;;0.60;0.60;;;-2.60;99.90;;;;;;4951698;29;20231;-88
2020/12/26 01:22:52;;;;;;;0.55;0.55;;;-2.60;99.90;;;;;;4952349;28;20231;-88
2020/12/26 01:25:19;;;;;;;0.50;0.50;;;-2.50;99.90;;;;;;4955509;29;20329;-88
2020/12/26 01:27:46;;;;;;;0.60;0.60;;;;;;;;;;4955852;29;20216;-88
2020/12/26 01:30:20;;;;;;;0.57;0.57;;;-2.60;99.90;;;;;;4956011;29;20299;-89
2020/12/26 01:32:48;;;;;;;0.60;0.60;;;-2.60;99.90;;;;;;4956196;29;20208;-88
2020/12/26 01:35:17;;;;;;;0.50;0.50;;;;;;;;;;4955041;29;20199;-88
2020/12/26 01:37:43;;;;;;;0.50;0.50;;;;;;;;;;4954516;29;20207;-88
2020/12/26 01:40:11;;;;;;;0.50;0.50;;;-2.50;99.90;;;;;;4954739;28;20298;-89
2020/12/26 01:42:38;;;;;;;0.50;0.50;;;-2.50;99.90;;;;;;4954336;29;20227;-89
2020/12/26 01:45:06;;;;;;;0.60;0.60;;;-2.70;99.90;;;;;;4954226;29;20215;-88
2020/12/26 01:47:35;;;;;;;0.50;0.50;;;-1.90;99.90;;;;;;4954391;29;20200;-87
2020/12/26 01:50:02;;;;;;;0.50;0.50;;;;;;;;;;4954181;29;20220;-87
2020/12/26 01:52:28;;;;;;;0.50;0.50;;;;;;;;;;4954727;29;20204;-87
2020/12/26 01:54:55;;;;;;;0.57;0.57;;;-2.30;99.90;;;;;;4954125;29;20263;-88
2020/12/26 01:57:34;;;;;;;0.50;0.50;;;-2.30;99.90;;;;;;4953832;29;20556;-87
2020/12/26 02:00:00;;;;;;;0.50;0.50;;;-2.40;99.90;;;;;;4953940;29;20212;-86
2020/12/26 02:02:27;;;;;;;0.40;0.40;;;;;;;;;;4954097;29;20674;-88
2020/12/26 02:04:53;;;;;;;0.60;0.60;;;-2.10;99.90;;;;;;4953897;29;20207;-88
2020/12/26 02:07:20;;;;;;;0.50;0.50;;;;;;;;;;4953676;29;20286;-87
2020/12/26 02:09:46;;;;;;;0.50;0.50;;;-2.00;99.90;;;;;;4954024;29;20211;-86
2020/12/26 02:12:13;;;;;;;0.50;0.50;;;;;;;;;;4953898;29;20211;-87
2020/12/26 02:14:45;;;;;;;0.50;0.50;;;-2.00;99.90;;;;;;4953869;28;20211;-89
2020/12/26 02:17:12;;;;;;;0.50;0.50;;;-2.10;99.90;;;;;;4953691;29;20240;-88
2020/12/26 02:19:38;;;;;;;0.50;0.50;;;-1.90;99.90;;;;;;4953509;29;20270;-88
2020/12/26 02:22:04;;;;;;;0.50;0.50;;;;;;;;;;4953165;29;20208;-87
2020/12/26 02:24:32;;;;;;;0.50;0.50;;;-1.90;99.90;;;;;;4952923;29;20227;-86
2020/12/26 02:26:58;;;;;;;0.50;0.50;;;;;;;;;;4952961;29;20251;-87
2020/12/26 02:29:25;;;;;;;0.50;0.50;;;;;;;;;;4953229;29;20245;-87
2020/12/26 02:31:51;;;;;;;0.50;0.50;;;-1.90;99.90;;;;;;4952882;29;20234;-88
2020/12/26 02:34:17;;;;;;;0.50;0.50;;;-1.80;99.90;;;;;;4952140;28;20627;-86
2020/12/26 02:36:44;;;;;;;0.50;0.50;;;;;;;;;;4952451;29;20211;-88
2020/12/26 02:39:10;;;;;;;0.50;0.50;;;;;;;;;;4952488;29;20686;-88
2020/12/26 02:41:37;;;;;;;0.50;0.50;;;-1.80;99.90;;;;;;4952277;29;20277;-88
2020/12/26 02:44:04;;;;;;;0.50;0.50;;;-1.80;99.90;;;;;;4951945;29;20282;-86
2020/12/26 02:46:30;;;;;;;0.50;0.50;;;-1.70;99.90;;;;;;4952642;29;20235;-87
2020/12/26 02:48:56;;;;;;;0.50;0.50;;;;;;;;;;4952518;29;20208;-87
2020/12/26 02:51:23;;;;;;;0.50;0.50;;;-1.70;99.90;;;;;;4951963;28;20211;-87
2020/12/26 02:53:49;;;;;;;0.50;0.50;;;;;;;;;;4952038;29;20208;-87
2020/12/26 02:56:17;;;;;;;0.50;0.50;;;-1.70;99.90;;;;;;4952584;29;20212;-87
2020/12/26 02:58:44;;;;;;;0.47;0.47;;;-1.60;99.90;;;;;;4952634;29;20242;-87
2020/12/26 03:01:11;;;;;;;0.50;0.50;;;;;;;;;;4952505;29;20210;-87
2020/12/26 03:03:37;;;;;;;0.50;0.50;;;;;;;;;;4952364;29;20219;-87
2020/12/26 03:06:03;;;;;;;0.50;0.50;;;-1.60;99.90;;;;;;4952287;29;20207;-86
2020/12/26 03:08:32;;;;;;;0.50;0.50;;;-1.60;99.90;;;;;;4952540;29;20207;-88
2020/12/26 03:10:58;;;;;;;0.50;0.50;;;-1.80;99.90;;;;;;4952548;29;20211;-87
2020/12/26 03:13:24;;;;;;;0.50;0.50;;;-1.90;99.90;;;;;;4952375;29;20223;-87
2020/12/26 03:15:51;;;;;;;0.40;0.40;;;-1.50;99.90;;;;;;4952465;29;20924;-88
2020/12/26 03:18:20;;;;;;;0.50;0.50;;;-1.50;99.90;;;;;;4949634;29;20742;-86
2020/12/26 03:20:46;;;;;;;0.40;0.40;;;-1.50;99.90;;;;;;4952906;29;20249;-86
2020/12/26 03:23:13;;;;;;;0.43;0.43;;;;;;;;;;4953456;29;20228;-88
2020/12/26 03:25:39;;;;;;;0.50;0.50;;;-1.50;99.90;;;;;;4952818;29;20589;-88
2020/12/26 03:28:07;;;;;;;0.50;0.50;;;-1.50;99.90;;;;;;4952890;29;20863;-87
2020/12/26 03:30:34;;;;;;;0.50;0.50;;;-1.50;99.90;;;;;;4953363;29;20196;-87
2020/12/26 03:33:01;;;;;;;0.50;0.50;;;-1.50;99.90;;;;;;4953524;29;20572;-87
2020/12/26 03:35:27;;;;;;;0.40;0.40;;;-1.50;99.90;;;;;;4953635;29;20215;-88
2020/12/26 03:37:53;;;;;;;0.50;0.50;;;-1.50;99.90;;;;;;4952662;29;20655;-88
2020/12/26 03:40:19;;;;;;;0.40;0.40;;;-1.50;99.90;;;;;;4953065;29;20671;-87
2020/12/26 03:42:48;;;;;;;0.50;0.50;;;0.60;99.90;;;;;;4952997;29;20227;-86
2020/12/26 03:45:15;;;;;;;0.50;0.50;;;-1.50;99.90;;;;;;4952694;29;20212;-87
2020/12/26 03:47:41;;;;;;;0.50;0.50;;;-1.50;99.90;;;;;;4952747;28;20203;-88
2020/12/26 03:50:08;;;;;;;0.50;0.50;;;-1.40;99.90;;;;;;4952644;29;20207;-88
2020/12/26 03:52:34;;;;;;;0.50;0.50;;;-1.40;99.90;;;;;;4953036;29;20219;-88
2020/12/26 03:55:00;;;;;;;0.40;0.40;;;-1.40;99.90;;;;;;4952898;29;20700;-87
2020/12/26 03:57:29;;;;;;;0.40;0.40;;;;;;;;;;4952993;29;20254;-88
2020/12/26 03:59:55;;;;;;;0.50;0.50;;;;;;;;;;4952865;29;20761;-88
2020/12/26 04:02:22;;;;;;;0.50;0.50;;;-1.30;99.90;;;;;;4952411;28;20218;-88
2020/12/26 04:04:48;;;;;;;0.50;0.50;;;;;;;;;;4952706;29;20212;-86
2020/12/26 04:07:15;;;;;;;0.50;0.50;;;-1.30;99.90;;;;;;4952856;29;20220;-88
2020/12/26 04:09:41;;;;;;;0.40;0.40;;;-1.30;99.90;;;;;;4952740;29;20208;-87
2020/12/26 04:12:08;;;;;;;0.43;0.43;;;-1.20;99.90;;;;;;4952601;29;20204;-88
2020/12/26 04:14:34;;;;;;;0.43;0.43;;;-1.40;99.90;;;;;;4952684;29;20671;-88
2020/12/26 04:17:01;;;;;;;0.40;0.40;;;;;;;;;;4952625;29;20215;-87
2020/12/26 04:19:27;;;;;;;0.50;0.50;;;-1.30;99.90;;;;;;4952654;28;20282;-88
2020/12/26 04:21:54;;;;;;;0.50;0.50;;;-1.30;99.90;;;;;;4952634;29;20208;-87
2020/12/26 04:24:22;;;;;;;0.50;0.50;;;-1.30;99.90;;;;;;4951754;29;20746;-89
2020/12/26 04:26:48;;;;;;;0.40;0.40;;;-1.90;99.90;;;;;;4952160;29;20211;-87
2020/12/26 04:29:14;;;;;;;0.40;0.40;;;-1.30;99.90;;;;;;4952768;29;20208;-88
2020/12/26 04:31:41;;;;;;;0.40;0.40;;;;;;;;;;4951693;29;20211;-88
2020/12/26 04:34:07;;;;;;;0.43;0.43;;;-1.20;99.90;;;;;;4951694;29;20204;-88
2020/12/26 04:36:33;;;;;;;0.40;0.40;;;-1.20;99.90;;;;;;4964796;28;20210;-86
2020/12/26 04:38:59;;;;;;;0.40;0.40;;;-1.30;99.90;;;;;;4971506;28;20241;-86
2020/12/26 04:41:26;;;;;;;0.40;0.40;;;-1.20;99.90;;;;;;4971600;28;20210;-86
2020/12/26 04:43:54;;;;;;;0.40;0.40;;;-1.10;99.90;;;;;;4971810;28;20562;-87
2020/12/26 04:46:25;;;;;;;0.40;0.40;;;-1.20;99.90;;;;;;4971359;28;20224;-87
2020/12/26 04:49:06;;;;;;;0.40;0.40;;;-1.60;99.90;;;;;;4971120;28;20203;-88
2020/12/26 04:51:34;;;;;;;0.40;0.40;;;-1.20;99.90;;;;;;4969865;28;20203;-88
2020/12/26 04:54:09;;;;;;;0.43;0.43;;;-1.10;99.90;;;;;;4951489;29;20204;-88
2020/12/26 04:56:42;;;;;;;0.40;0.40;;;-1.20;99.90;;;;;;4951812;29;20207;-87
2020/12/26 04:59:10;;;;;;;0.40;0.40;;;-1.20;99.90;;;;;;4952741;28;20207;-87
2020/12/26 05:01:40;;;;;;;0.40;0.40;;;-1.10;99.90;;;;;;4955463;29;20558;-88
2020/12/26 05:04:06;;;;;;;0.40;0.40;;;-1.00;99.90;;;;;;4954203;29;20407;-87
2020/12/26 05:06:44;;;;;;;0.40;0.40;;;-1.10;99.90;;;;;;4955538;29;20212;-86
2020/12/26 05:09:10;;;;;;;0.40;0.40;;;-1.10;99.90;;;;;;4955259;29;20214;-87
2020/12/26 05:11:36;;;;;;;0.40;0.40;;;-1.10;99.90;;;;;;4955222;29;20441;-88
2020/12/26 05:14:06;;;;;;;0.40;0.40;;;-1.00;99.90;;;;;;4955173;29;20215;-86
2020/12/26 05:16:32;;;;;;;0.40;0.40;;;;;;;;;;4955287;29;20216;-86
2020/12/26 05:18:58;;;;;;;0.40;0.40;;;-1.00;99.90;;;;;;4955335;29;20239;-88
2020/12/26 05:21:25;;;;;;;0.40;0.40;;;-0.70;99.90;;;;;;4954738;29;20200;-88
2020/12/26 05:24:03;;;;;;;0.40;0.40;;;-1.40;99.90;;;;;;4955243;29;20546;-89
2020/12/26 05:26:31;;;;;;;0.40;0.40;;;-1.10;99.90;;;;;;4957030;29;20303;-88
2020/12/26 05:29:01;;;;;;;0.40;0.40;;;-1.40;99.90;;;;;;4956500;29;20782;-88
2020/12/26 05:31:56;;;;;;;0.40;0.40;;;-0.90;99.90;;;;;;4955047;29;20212;-88
2020/12/26 05:34:29;;;;;;;0.40;0.40;;;-0.90;99.90;;;;;;4954701;29;20215;-89
2020/12/26 05:36:58;;;;;;;0.40;0.40;;;-1.00;99.90;;;;;;4954821;29;20211;-87
2020/12/26 05:39:28;;;;;;;0.40;0.40;;;-0.90;99.90;;;;;;4954719;29;20218;-88
2020/12/26 05:41:55;;;;;;;0.40;0.40;;;-0.80;99.90;;;;;;4954712;29;20546;-89
2020/12/26 05:44:26;;;;;;;0.40;0.40;;;-0.80;99.90;;;;;;4954497;29;20274;-87
2020/12/26 05:46:54;;;;;;;0.40;0.40;;;-0.80;99.90;;;;;;4954790;29;20270;-87
2020/12/26 05:49:39;;;;;;;0.40;0.40;;;-0.80;99.90;;;;;;4954587;29;20271;-88
2020/12/26 05:52:07;;;;;;;0.40;0.40;;;-0.70;99.90;;;;;;4954320;29;20402;-87
2020/12/26 05:54:34;;;;;;;0.40;0.40;;;-0.70;99.90;;;;;;4954552;29;20607;-86
2020/12/26 05:57:08;;;;;;;0.40;0.40;;;-0.70;99.90;;;;;;4954820;29;20207;-86
2020/12/26 05:59:34;;;;;;;0.40;0.40;;;-0.70;99.90;;;;;;4954621;29;20207;-87
2020/12/26 06:02:20;;;;;;;0.40;0.40;;;-0.70;99.90;;;;;;4954890;29;20212;-86
2020/12/26 06:04:51;;;;;;;0.40;0.40;;;-0.30;99.90;;;;;;4954331;29;20231;-86
2020/12/26 06:07:21;;;;;;;0.40;0.40;;;-0.60;99.90;;;;;;4954246;29;20295;-86
2020/12/26 06:09:51;;;;;;;0.40;0.40;;;-0.60;99.90;;;;;;4953860;28;20602;-87
2020/12/26 06:12:17;;;;;;;0.40;0.40;;;-0.60;99.90;;;;;;4954228;29;20586;-86
2020/12/26 06:14:46;;;;;;;0.40;0.40;;;-0.50;99.90;;;;;;4954522;29;20203;-88
2020/12/26 06:17:18;;;;;;;0.40;0.40;;;-0.50;99.90;;;;;;4954029;29;20204;-87
2020/12/26 06:19:46;;;;;;;0.40;0.40;;;;;;;;;;4954461;29;20207;-88
2020/12/26 06:22:12;;;;;;;0.40;0.40;;;-0.40;99.90;;;;;;4954190;29;20204;-87
2020/12/26 06:24:39;;;;;;;0.40;0.40;;;-0.40;99.90;;;;;;4953922;29;20227;-88
2020/12/26 06:27:10;;;;;;;0.40;0.40;;;-0.40;99.90;;;;;;4953969;29;20220;-88
2020/12/26 06:29:37;;;;;;;0.40;0.40;;;-0.30;99.90;;;;;;4953790;29;20339;-89
2020/12/26 06:32:07;;;;;;;0.40;0.40;;;-0.50;99.90;;;;;;4953663;29;20208;-87
2020/12/26 06:34:35;;;;;;;0.40;0.40;;;-0.30;99.90;;;;;;4953608;29;20204;-87
2020/12/26 06:37:03;;;;;;;0.40;0.40;;;-0.20;99.90;;;;;;4953949;29;20218;-88
2020/12/26 06:39:30;;;;;;;0.40;0.40;;;-0.30;99.90;;;;;;4953892;29;20244;-88
2020/12/26 06:42:16;;;;;;;0.40;0.40;;;-0.20;99.90;;;;;;4954071;29;20274;-88
2020/12/26 06:44:43;;;;;;;0.40;0.40;;;-0.20;99.90;;;;;;4954144;29;20223;-89
2020/12/26 06:47:39;;;;;;;0.40;0.40;;;-0.20;99.90;;;;;;4953686;29;20263;-87
2020/12/26 06:50:20;;;;;;;0.40;0.40;;;-0.20;99.90;;;;;;4946092;29;20230;-86
2020/12/26 06:52:46;;;;;;;0.40;0.40;;;;;;;;;;4954157;29;20211;-87
2020/12/26 06:55:44;;;;;;;0.40;0.40;;;-0.10;99.90;;;;;;4954181;29;20208;-88
2020/12/26 06:58:11;;;;;;;0.40;0.40;;;-0.10;99.90;;;;;;4953573;29;20203;-87
2020/12/26 07:00:38;;;;;;;0.40;0.40;;;-0.10;99.90;;;;;;4953445;29;20563;-88
2020/12/26 07:03:22;;;;;;;0.40;0.40;;;-0.20;99.90;;;;;;4953347;29;20235;-87
2020/12/26 07:05:50;;;;;;;0.40;0.40;;;0.00;99.90;;;;;;4953582;29;20254;-86
2020/12/26 07:08:27;;;;;;;0.40;0.40;;;0.00;99.90;;;;;;4953536;29;20558;-87
2020/12/26 07:10:55;;;;;;;0.40;0.40;;;0.10;99.90;;;;;;4953307;29;20214;-87
2020/12/26 07:13:58;;;;;;;0.40;0.40;;;0.10;99.90;;;;;;4953127;29;20561;-87
2020/12/26 07:16:41;;;;;;;0.40;0.40;;;0.10;99.90;;;;;;4953130;29;20211;-88
2020/12/26 07:19:27;;;;;;;0.40;0.40;;;0.10;99.90;;;;;;4953027;29;20263;-88
2020/12/26 07:21:56;;;;;;;0.40;0.40;;;0.20;99.90;;;;;;4952860;28;20691;-87
2020/12/26 07:24:23;;;;;;;0.40;0.40;;;0.10;99.90;;;;;;4953289;29;20224;-88
2020/12/26 07:26:50;;;;;;;0.40;0.40;;;0.30;99.90;;;;;;4953121;29;20216;-88
2020/12/26 07:29:26;;;;;;;0.40;0.40;;;0.20;99.90;;;;;;4953529;29;20216;-86
2020/12/26 07:31:53;;;;;;;0.40;0.40;;;0.30;99.90;;;;;;4953062;29;20722;-88
2020/12/26 07:34:35;;;;;;;0.40;0.40;;;0.40;99.90;;;;;;4952977;29;20207;-88
2020/12/26 07:37:03;;;;;;;0.40;0.40;;;0.40;99.90;;;;;;4952912;29;20271;-87
2020/12/26 07:39:29;;;;;;;0.40;0.40;;;0.40;99.90;;;;;;4953270;29;20578;-88
2020/12/26 07:41:56;;;;;;;0.40;0.40;;;0.40;99.90;;;;;;4952932;29;20222;-88
2020/12/26 07:44:28;;;;;;;0.40;0.40;;;0.40;99.90;;;;;;4952421;29;20326;-88
2020/12/26 07:46:55;;;;;;;0.40;0.40;;;0.40;99.90;;;;;;4952968;29;20659;-88
2020/12/26 07:49:22;;;;;;;0.40;0.40;;;0.40;99.90;;;;;;4952356;29;20203;-87
2020/12/26 07:52:01;;;;;;;0.40;0.40;;;0.40;99.90;;;;;;4952065;29;20279;-86
2020/12/26 07:54:28;;;;;;;0.40;0.40;;;0.40;99.90;;;;;;4952689;29;20299;-87
2020/12/26 07:56:55;;;;;;;0.40;0.40;;;0.50;99.90;;;;;;4952358;29;20243;-87
2020/12/26 07:59:21;;;;;;;0.40;0.40;;;0.10;99.90;;;;;;4952559;29;20212;-88
2020/12/26 08:01:52;;;;;;;0.40;0.40;;;0.50;99.90;;;;;;4953034;29;20218;-85
2020/12/26 08:04:19;;;;;;;0.40;0.40;;;0.50;99.90;;;;;;4952771;29;20597;-86
2020/12/26 08:06:47;;;;;;;0.40;0.40;;;0.40;99.90;;;;;;4959227;28;20234;-87
2020/12/26 08:09:14;;;;;;;0.40;0.40;;;0.50;99.90;;;;;;4972978;28;20210;-87
2020/12/26 08:11:41;;;;;;;0.40;0.40;;;0.50;99.90;;;;;;4972798;28;20217;-87
2020/12/26 08:14:07;;;;;;;0.40;0.40;;;0.50;99.90;;;;;;4972923;28;20199;-87
2020/12/26 08:16:34;;;;;;;0.40;0.40;;;0.50;99.90;;;;;;4972508;28;20666;-86
2020/12/26 08:19:01;;;;;;;0.40;0.40;;;0.50;99.90;;;;;;4959936;28;20246;-87
2020/12/26 08:21:29;;;;;;;0.40;0.40;;;0.50;99.90;;;;;;4955314;28;20258;-86
2020/12/26 08:23:56;;;;;;;0.40;0.40;;;0.40;99.90;;;;;;4958522;28;20281;-87
2020/12/26 08:26:25;;;;;;;0.40;0.40;;;0.50;99.90;;;;;;4967792;28;20272;-87
2020/12/26 08:28:53;;;;;;;0.40;0.40;;;0.50;99.90;;;;;;4972915;28;20215;-86
2020/12/26 08:31:24;;;;;;;0.40;0.40;;;0.50;99.90;;;;;;4968951;28;20546;-87
2020/12/26 08:34:02;;;;;;;0.40;0.40;;;0.50;99.90;;;;;;4967825;28;20187;-88
2020/12/26 08:36:33;;;;;;;0.40;0.40;;;0.50;99.90;;;;;;4952940;29;20626;-88
2020/12/26 08:39:00;;;;;;;0.40;0.40;;;0.50;99.90;;;;;;4953584;29;20546;-87
2020/12/26 08:41:30;;;;;;;0.40;0.40;;;0.50;99.90;;;;;;4953702;29;20243;-89
2020/12/26 08:43:57;;;;;;;0.40;0.40;;;0.50;99.90;;;;;;4953742;29;20306;-89
2020/12/26 08:46:25;;;;;;;0.40;0.40;;;2.40;99.90;;;;;;4953613;29;20222;-88
2020/12/26 08:48:52;;;;;;;0.43;0.43;;;0.60;99.90;;;;;;4953545;29;20203;-88
2020/12/26 08:51:20;;;;;;;0.40;0.40;;;0.70;99.90;;;;;;4953328;29;20582;-86
2020/12/26 08:53:47;;;;;;;0.40;0.40;;;0.30;99.90;;;;;;4953212;29;20663;-87
2020/12/26 08:56:14;;;;;;;0.40;0.40;;;0.50;99.90;;;;;;4952950;29;20196;-88
2020/12/26 08:58:48;;;;;;;0.40;0.40;;;0.80;99.90;;;;;;4952466;29;20204;-89
2020/12/26 09:01:17;;;;;;;0.40;0.40;;;0.80;99.90;;;;;;4952621;29;20265;-89
2020/12/26 09:03:49;;;;;;;0.40;0.40;;;0.60;99.90;;;;;;4952699;29;20235;-88
2020/12/26 09:06:26;;;;;;;0.40;0.40;;;0.90;99.90;;;;;;4952609;29;20226;-87
2020/12/26 09:08:52;;;;;;;0.40;0.40;;;0.90;99.90;;;;;;4952213;29;20262;-87
2020/12/26 09:11:28;;;;;;;0.40;0.40;;;0.60;99.90;;;;;;4953014;29;20258;-89
2020/12/26 09:13:55;;;;;;;0.40;0.40;;;2.70;99.90;;;;;;4953651;29;20211;-87
2020/12/26 09:16:22;;;;;;;0.40;0.40;;;;;;;;;;4953164;29;20229;-89
2020/12/26 09:18:50;;;;;;;0.40;0.40;;;1.10;99.90;;;;;;4952812;29;20248;-88
2020/12/26 09:21:22;;;;;;;0.40;0.40;;;1.10;99.90;;;;;;4953569;29;20220;-88
2020/12/26 09:23:49;;;;;;;0.40;0.40;;;1.10;99.90;;;;;;4952895;29;20267;-89
2020/12/26 09:26:17;;;;;;;0.40;0.40;;;2.60;99.90;;;;;;4953073;29;20200;-87
2020/12/26 09:28:49;;;;;;;0.40;0.40;;;0.60;99.90;;;;;;4954169;28;20204;-88
2020/12/26 09:31:19;;;;;;;0.40;0.40;;;0.80;99.90;;;;;;4971398;28;20218;-88
2020/12/26 09:33:45;;;;;;;0.40;0.40;;;1.30;99.90;;;;;;4971502;28;20659;-88
2020/12/26 09:36:16;;;;;;;0.40;0.40;;;1.40;99.90;;;;;;4972051;28;20207;-88
2020/12/26 09:38:43;;;;;;;0.40;0.40;;;0.80;99.90;;;;;;4972172;28;20199;-88
2020/12/26 09:41:13;;;;;;;0.40;0.40;;;1.30;99.90;;;;;;4971784;28;20246;-88
2020/12/26 09:43:43;;;;;;;0.40;0.40;;;1.40;99.90;;;;;;4972341;28;20227;-87
2020/12/26 09:46:12;;;;;;;0.40;0.40;;;1.10;99.90;;;;;;4975945;28;20211;-87
2020/12/26 09:48:41;;;;;;;0.40;0.40;;;1.40;99.90;;;;;;4974081;28;20206;-87
2020/12/26 09:51:24;;;;;;;0.50;0.50;;;3.00;99.90;;;;;;4963582;28;20208;-86
2020/12/26 09:53:50;;;;;;;0.40;0.40;;;1.50;99.90;;;;;;4972175;28;20206;-87
2020/12/26 09:56:17;;;;;;;0.40;0.40;;;1.50;99.90;;;;;;4976118;28;20203;-85
2020/12/26 09:58:45;;;;;;;0.40;0.40;;;1.60;99.90;;;;;;4976040;28;20203;-87
2020/12/26 10:01:14;;;;;;;0.40;0.40;;;1.60;99.90;;;;;;4975746;28;20553;-86
2020/12/26 10:03:42;;;;;;;0.40;0.40;;;1.60;99.90;;;;;;4975838;28;20233;-88
2020/12/26 10:06:11;;;;;;;0.50;0.50;;;1.60;99.90;;;;;;4975964;28;20230;-87
2020/12/26 10:08:38;;;;;;;0.40;0.40;;;1.60;99.90;;;;;;4974953;28;20241;-87
2020/12/26 10:11:04;;;;;;;0.40;0.40;;;1.70;99.90;;;;;;4975577;28;20299;-87
2020/12/26 10:13:31;;;;;;;0.50;0.50;;;1.60;99.90;;;;;;4973168;28;20214;-84
2020/12/26 10:15:57;;;;;;;0.50;0.50;;;1.60;99.90;;;;;;4955987;29;20219;-86
2020/12/26 10:18:23;;;;;;;0.43;0.43;;;1.60;99.90;;;;;;4955441;29;20719;-86
2020/12/26 10:20:50;;;;;;;0.40;0.40;;;1.60;99.90;;;;;;4952957;29;20208;-86
2020/12/26 10:23:16;;;;;;;0.40;0.40;;;1.60;99.90;;;;;;4955369;29;20208;-85
2020/12/26 10:25:52;;;;;;;0.50;0.50;;;1.70;99.90;;;;;;4952896;29;20211;-86
2020/12/26 10:28:19;;;;;;;0.40;0.40;;;1.70;99.90;;;;;;4952341;29;20674;-87
2020/12/26 10:30:48;;;;;;;0.40;0.40;;;1.70;99.90;;;;;;4954073;29;20240;-86
2020/12/26 10:33:14;;;;;;;0.40;0.40;;;1.70;99.90;;;;;;4954644;29;20208;-87
2020/12/26 10:35:40;;;;;;;0.40;0.40;;;1.70;99.90;;;;;;4954365;29;20216;-87
2020/12/26 10:38:07;;;;;;;0.40;0.40;;;1.70;99.90;;;;;;4954553;29;20214;-87
2020/12/26 10:40:33;;;;;;;0.40;0.40;;;1.70;99.90;;;;;;4954021;28;20255;-86
2020/12/26 10:43:00;;;;;;;0.40;0.40;;;1.70;99.90;;;;;;4955065;29;20219;-86
2020/12/26 10:45:26;;;;;;;0.40;0.40;;;1.80;99.90;;;;;;4954610;29;20226;-86
2020/12/26 10:47:52;;;;;;;0.40;0.40;;;1.80;99.90;;;;;;4954183;29;20204;-86
2020/12/26 10:50:18;;;;;;;0.40;0.40;;;1.80;99.90;;;;;;4954411;29;20207;-86
2020/12/26 10:52:44;;;;;;;0.43;0.43;;;1.80;99.90;;;;;;4954637;29;20208;-86
2020/12/26 10:55:14;;;;;;;0.40;0.40;;;1.80;99.90;;;;;;4954235;28;20611;-86
2020/12/26 10:57:40;;;;;;;0.50;0.50;;;1.90;99.90;;;;;;4954070;29;20215;-86
2020/12/26 11:00:06;;;;;;;0.47;0.47;;;1.90;99.90;;;;;;4954488;29;20686;-86
2020/12/26 11:02:32;;;;;;;0.50;0.50;;;1.90;99.90;;;;;;4954910;29;20211;-85
2020/12/26 11:04:59;;;;;;;0.50;0.50;;;1.90;99.90;;;;;;4954571;29;20229;-86
2020/12/26 11:07:25;;;;;;;0.50;0.50;;;1.90;99.90;;;;;;4955065;29;20223;-86
2020/12/26 11:09:51;;;;;;;0.50;0.50;;;1.90;99.90;;;;;;4954422;29;20496;-87
2020/12/26 11:12:18;;;;;;;0.43;0.43;;;1.90;99.90;;;;;;4954503;29;20216;-86
2020/12/26 11:14:44;;;;;;;0.40;0.40;;;2.00;99.90;;;;;;4954670;29;20204;-87
2020/12/26 11:17:10;;;;;;;0.40;0.40;;;2.00;99.90;;;;;;4954345;29;20262;-87
2020/12/26 11:19:37;;;;;;;0.50;0.50;;;2.00;99.90;;;;;;4953918;29;20239;-86
2020/12/26 11:22:04;;;;;;;0.50;0.50;;;2.10;99.90;;;;;;4954119;29;20270;-86
2020/12/26 11:24:31;;;;;;;0.50;0.50;;;1.90;99.90;;;;;;4954209;29;20227;-87
2020/12/26 11:26:57;;;;;;;0.50;0.50;;;2.00;99.90;;;;;;4954234;29;20212;-87
2020/12/26 11:29:24;;;;;;;0.50;0.50;;;2.10;99.90;;;;;;4953838;29;20236;-87
2020/12/26 11:31:52;;;;;;;0.50;0.50;;;2.20;99.90;;;;;;4953117;29;20821;-86
2020/12/26 11:34:18;;;;;;;0.40;0.40;;;2.50;99.90;;;;;;4953425;29;20199;-87
2020/12/26 11:36:44;;;;;;;0.40;0.40;;;2.20;99.90;;;;;;4953320;29;20204;-87
2020/12/26 11:39:10;;;;;;;0.40;0.40;;;2.20;99.90;;;;;;4953536;29;20215;-87
2020/12/26 11:41:38;;;;;;;0.50;0.50;;;2.20;99.90;;;;;;4952753;29;20203;-87
2020/12/26 11:44:04;;;;;;;0.50;0.50;;;2.20;99.90;;;;;;4952710;29;20259;-86
2020/12/26 11:46:31;;;;;;;0.40;0.40;;;2.30;99.90;;;;;;4953249;29;20230;-86
2020/12/26 11:48:58;;;;;;;0.50;0.50;;;2.20;99.90;;;;;;4953277;29;20578;-87
2020/12/26 11:51:24;;;;;;;0.50;0.50;;;2.30;99.90;;;;;;4953136;29;20213;-86
2020/12/26 11:53:50;;;;;;;0.50;0.50;;;2.30;99.90;;;;;;4953138;29;20214;-86
2020/12/26 11:56:17;;;;;;;0.50;0.50;;;2.30;99.90;;;;;;4953571;29;20207;-86
2020/12/26 11:58:44;;;;;;;0.50;0.50;;;2.30;99.90;;;;;;4953404;29;20212;-86
2020/12/26 12:01:19;;;;;;;0.40;0.40;;;2.40;99.90;;;;;;4952903;29;20582;-87
2020/12/26 12:03:47;;;;;;;0.40;0.40;;;2.00;99.90;;;;;;4953115;29;20218;-85
2020/12/26 12:06:16;;;;;;;0.50;0.50;;;2.40;99.90;;;;;;4953182;29;20208;-86
2020/12/26 12:08:45;;;;;;;0.40;0.40;;;2.30;99.90;;;;;;4953123;28;20207;-87
2020/12/26 12:11:11;;;;;;;0.45;0.45;;;2.30;99.90;;;;;;4953206;29;20222;-86
2020/12/26 12:13:40;;;;;;;0.50;0.50;;;2.40;99.90;;;;;;4952925;29;20259;-86
2020/12/26 12:16:06;;;;;;;0.50;0.50;;;2.40;99.90;;;;;;4952864;29;20501;-86
2020/12/26 12:18:33;;;;;;;0.40;0.40;;;2.40;99.90;;;;;;4952499;29;20290;-86
2020/12/26 12:21:02;;;;;;;0.50;0.50;;;2.20;99.90;;;;;;4953095;29;20582;-87
2020/12/26 12:23:28;;;;;;;0.50;0.50;;;2.50;99.90;;;;;;4953101;29;20231;-86
2020/12/26 12:25:58;;;;;;;0.50;0.50;;;2.50;99.90;;;;;;4952744;29;20208;-87
2020/12/26 12:28:27;;;;;;;0.45;0.45;;;2.50;99.90;;;;;;4952736;29;20212;-86
2020/12/26 12:30:53;;;;;;;0.40;0.40;;;2.50;99.90;;;;;;4952492;29;20218;-87
2020/12/26 12:33:20;;;;;;;0.50;0.50;;;2.60;99.90;;;;;;4952670;29;20262;-86
2020/12/26 12:35:46;;;;;;;0.50;0.50;;;2.60;99.90;;;;;;4952757;29;20216;-86
2020/12/26 12:38:13;;;;;;;0.40;0.40;;;2.50;99.90;;;;;;4952846;29;20683;-86
2020/12/26 12:40:39;;;;;;;0.50;0.50;;;2.60;99.90;;;;;;4952647;29;20203;-87
2020/12/26 12:43:05;;;;;;;0.40;0.40;;;2.60;99.90;;;;;;4952647;29;20207;-87
2020/12/26 12:45:31;;;;;;;0.50;0.50;;;2.60;99.90;;;;;;4952300;29;20230;-87
2020/12/26 12:47:58;;;;;;;0.50;0.50;;;2.60;99.90;;;;;;4953011;29;20222;-87
2020/12/26 12:50:24;;;;;;;0.40;0.40;;;2.60;99.90;;;;;;4952431;29;20211;-87
2020/12/26 12:52:50;;;;;;;0.47;0.47;;;2.70;99.90;;;;;;4952541;29;20258;-87
2020/12/26 12:55:17;;;;;;;0.50;0.50;;;2.70;99.90;;;;;;4952664;29;20211;-86
2020/12/26 12:57:43;;;;;;;0.50;0.50;;;2.70;99.90;;;;;;4952849;29;20662;-87
2020/12/26 13:00:09;;;;;;;0.50;0.50;;;2.70;99.90;;;;;;4952410;29;20787;-87
2020/12/26 13:02:36;;;;;;;0.40;0.40;;;2.70;99.90;;;;;;4952693;29;20227;-86
2020/12/26 13:05:02;;;;;;;0.40;0.40;;;2.70;99.90;;;;;;4952319;29;20235;-85
2020/12/26 13:07:28;;;;;;;0.50;0.50;;;2.70;99.90;;;;;;4952163;29;20207;-85
2020/12/26 13:09:54;;;;;;;0.50;0.50;;;2.70;99.90;;;;;;4952045;29;20211;-86